Time;durP1;ratioP1;P1;durP2;ratioP2;P2;SDS_P1;SDS_P2;PMS_P1;PMS_P2;Temp;Humidity;BMP_temperature;BMP_pressure;BME280_temperature;BME280_humidity;BME280_pressure;Samples;Min_cycle;Max_cycle;Signal;HPM_P1;HPM_P2
2021/09/13 11:55:21;;;;;;;20.98;11.65;;;;;;;;;;1043861;27;99903;-72
2021/09/13 11:56:01;;;;;;;20.92;12.50;;;;;;;;;;1037935;28;100658;-68
2021/09/13 11:56:33;;;;;;;20.38;12.85;;;;;;;;;;1038652;28;99872;-69
2021/09/13 11:57:04;;;;;;;20.52;12.82;;;;;;;;;;1034781;28;100196;-76
2021/09/13 11:57:45;;;;;;;20.10;13.25;;;;;;;;;;1028993;28;100102;-73
2021/09/13 11:58:17;;;;;;;18.75;12.80;;;;;;;;;;1030257;28;100189;-70
2021/09/13 11:58:48;;;;;;;24.38;13.25;;;;;;;;;;1031608;28;100178;-70
2021/09/13 11:59:23;;;;;;;23.48;13.68;;;;;;;;;;1026156;28;101390;-72
2021/09/13 12:00:01;;;;;;;18.88;12.82;;;;;;;;;;1023667;28;99902;-69
2021/09/13 12:00:44;;;;;;;21.35;13.63;;;;;;;;;;1026430;28;103073;-69
2021/09/13 12:01:21;;;;;;;20.35;12.75;;;;;;;;;;1031154;28;99865;-70
2021/09/13 12:02:01;;;;;;;23.92;13.90;;;;;;;;;;1032628;28;100330;-70
2021/09/13 12:02:32;;;;;;;;;;;;;;;;;;1030055;28;99913;-71
2021/09/13 12:03:04;;;;;;;;;;;;;;;;;;1027540;28;100157;-73
2021/09/13 12:03:34;;;;;;;23.30;13.15;;;;;;;;;;1029820;28;99751;-72
2021/09/13 12:04:27;;;;;;;21.42;13.70;;;;;;;;;;1030772;28;100200;-70
2021/09/13 12:05:04;;;;;;;19.27;12.60;;;;;;;;;;1032207;28;99961;-70
2021/09/13 12:05:37;;;;;;;19.75;13.43;;;;;;;;;;1030692;28;100222;-69
2021/09/13 12:06:18;;;;;;;17.77;11.93;;;;;;;;;;1031479;28;100041;-70
2021/09/13 12:07:09;;;;;;;20.50;14.50;;;;;;;;;;1030526;28;103089;-69
2021/09/13 12:07:40;;;;;;;;;;;;;;;;;;1028271;28;99969;-70
2021/09/13 12:08:31;;;;;;;25.90;14.02;;;;;;;;;;1026900;28;100185;-68
2021/09/13 12:09:02;;;;;;;21.23;12.75;;;;;;;;;;1032166;28;100001;-69
2021/09/13 12:09:34;;;;;;;22.48;12.93;;;;;;;;;;1030953;28;100218;-71
2021/09/13 12:11:08;;;;;;;20.77;12.55;;;;;;;;;;1024746;28;101930;-78
2021/09/13 12:11:39;;;;;;;21.80;12.43;;;;;;;;;;1028203;28;100216;-77
2021/09/13 12:12:16;;;;;;;18.35;12.68;;;;;;;;;;1026403;28;102826;-75
2021/09/13 12:12:50;;;;;;;18.38;12.10;;;;;;;;;;1027862;28;99770;-73
2021/09/13 12:13:24;;;;;;;19.85;11.43;;;;;;;;;;1026907;28;100241;-77
2021/09/13 12:13:55;;;;;;;20.98;13.63;;;;;;;;;;1027368;28;100234;-74
2021/09/13 12:14:27;;;;;;;21.55;13.52;;;;;;;;;;1018690;28;100318;-70
2021/09/13 12:15:05;;;;;;;20.33;12.68;;;;;;;;;;1019711;28;100120;-76
2021/09/13 12:15:37;;;;;;;19.83;13.77;;;;;;;;;;1014607;28;101445;-77
2021/09/13 12:16:11;;;;;;;18.95;12.60;;;;;;;;;;1019077;28;99780;-75
2021/09/13 12:17:05;;;;;;;18.88;12.40;;;;;;;;;;1022971;28;101554;-76
2021/09/13 12:17:43;;;;;;;18.27;13.57;;;;;;;;;;1027669;28;99990;-79
2021/09/13 12:18:16;;;;;;;19.38;12.52;;;;;;;;;;1026828;28;101815;-79
2021/09/13 12:18:47;;;;;;;20.05;12.05;;;;;;;;;;1028001;28;99839;-77
2021/09/13 12:19:19;;;;;;;19.85;12.57;;;;;;;;;;1022018;28;101573;-74
2021/09/13 12:20:11;;;;;;;16.65;12.55;;;;;;;;;;1022924;28;100153;-79
2021/09/13 12:20:43;;;;;;;18.48;12.43;;;;;;;;;;1021757;28;100467;-86
2021/09/13 12:21:18;;;;;;;19.90;12.52;;;;;;;;;;1027574;28;99840;-82
2021/09/13 12:22:00;;;;;;;18.98;12.45;;;;;;;;;;1026413;28;101581;-75
2021/09/13 12:22:34;;;;;;;22.48;12.85;;;;;;;;;;1025463;28;99936;-70
2021/09/13 12:23:08;;;;;;;16.65;11.65;;;;;;;;;;1023145;28;100288;-80
2021/09/13 12:23:43;;;;;;;16.80;12.05;;;;;;;;;;1023968;28;99915;-77
2021/09/13 12:24:22;;;;;;;20.13;12.27;;;;;;;;;;1026765;28;100370;-80
2021/09/13 12:24:53;;;;;;;19.02;11.60;;;;;;;;;;1028071;28;99982;-79
2021/09/13 12:25:25;;;;;;;17.38;11.43;;;;;;;;;;1027051;28;100497;-77
2021/09/13 12:26:06;;;;;;;19.30;12.00;;;;;;;;;;1027944;28;99837;-79
2021/09/13 12:26:37;;;;;;;16.85;11.32;;;;;;;;;;1023012;28;103651;-72
2021/09/13 12:27:13;;;;;;;19.40;11.38;;;;;;;;;;1024089;28;99750;-80
2021/09/13 12:27:52;;;;;;;16.75;11.35;;;;;;;;;;1018255;28;101386;-86
2021/09/13 12:28:29;;;;;;;15.10;10.30;;;;;;;;;;1021998;28;99650;-81
2021/09/13 12:29:08;;;;;;;15.95;9.93;;;;;;;;;;1022754;28;100227;-75
2021/09/13 12:29:52;;;;;;;13.75;9.55;;;;;;;;;;1027398;28;99992;-81
2021/09/13 12:30:29;;;;;;;16.52;9.40;;;;;;;;;;1023112;28;100545;-82
2021/09/13 12:31:06;;;;;;;15.20;9.45;;;;;;;;;;1023709;28;99937;-75
2021/09/13 12:31:37;;;;;;;14.02;9.60;;;;;;;;;;1022561;28;100217;-84
2021/09/13 12:32:29;;;;;;;15.73;9.57;;;;;;;;;;1023765;28;99798;-80
2021/09/13 12:33:08;;;;;;;13.90;9.23;;;;;;;;;;1026379;28;101423;-79
2021/09/13 12:33:42;;;;;;;13.18;9.02;;;;;;;;;;1028032;28;101317;-83
2021/09/13 12:34:13;;;;;;;19.30;11.25;;;;;;;;;;1027203;28;100280;-80
2021/09/13 12:34:52;;;;;;;16.90;10.48;;;;;;;;;;1025945;28;99759;-80
2021/09/13 12:35:32;;;;;;;16.13;9.88;;;;;;;;;;1022350;28;101442;-78
2021/09/13 12:36:23;;;;;;;14.85;9.40;;;;;;;;;;1024051;28;100167;-82
2021/09/13 12:37:04;;;;;;;;;;;;;;;;;;1019634;28;100469;-77
2021/09/13 12:37:38;;;;;;;12.88;9.38;;;;;;;;;;1020223;28;99830;-81
2021/09/13 12:38:27;;;;;;;17.77;9.98;;;;;;;;;;1019046;28;100754;-79
2021/09/13 12:38:59;;;;;;;14.68;10.07;;;;;;;;;;1024232;28;99862;-78
2021/09/13 12:39:30;;;;;;;15.48;10.15;;;;;;;;;;1018426;28;101613;-77
2021/09/13 12:40:05;;;;;;;12.82;9.52;;;;;;;;;;1019717;28;100146;-81
2021/09/13 12:40:58;;;;;;;15.30;10.40;;;;;;;;;;1014616;28;100248;-83
2021/09/13 12:41:34;;;;;;;17.40;10.15;;;;;;;;;;1019326;28;100027;-75
2021/09/13 12:42:24;;;;;;;15.40;10.70;;;;;;;;;;1022395;28;101777;-77
2021/09/13 12:42:59;;;;;;;;;;;;;;;;;;1020411;28;99788;-82
2021/09/13 12:43:38;;;;;;;15.90;9.75;;;;;;;;;;1022318;28;101618;-78
2021/09/13 12:44:15;;;;;;;16.35;10.18;;;;;;;;;;1023629;28;100111;-81
2021/09/13 12:44:58;;;;;;;16.55;9.48;;;;;;;;;;1018648;28;100442;-79
2021/09/13 12:45:32;;;;;;;17.23;9.90;;;;;;;;;;1020112;28;100020;-81
2021/09/13 12:46:11;;;;;;;14.40;10.05;;;;;;;;;;1018406;28;101452;-82
2021/09/13 12:47:00;;;;;;;14.48;9.90;;;;;;;;;;1026471;28;100004;-81
2021/09/13 12:47:31;;;;;;;13.98;9.73;;;;;;;;;;1024970;28;100152;-79
2021/09/13 12:48:04;;;;;;;17.40;10.23;;;;;;;;;;1024665;28;99952;-81
2021/09/13 12:48:47;;;;;;;18.85;10.88;;;;;;;;;;1027578;28;100170;-83
2021/09/13 12:49:18;;;;;;;15.07;10.18;;;;;;;;;;1027835;28;99980;-80
2021/09/13 12:49:51;;;;;;;14.90;10.70;;;;;;;;;;1026429;28;101369;-81
2021/09/13 12:50:41;;;;;;;14.57;9.77;;;;;;;;;;1017818;28;99957;-83
2021/09/13 12:51:17;;;;;;;16.52;10.65;;;;;;;;;;1014849;28;100185;-82
2021/09/13 12:52:04;;;;;;;15.30;9.50;;;;;;;;;;1018486;28;100133;-79
2021/09/13 12:52:47;;;;;;;15.57;10.23;;;;;;;;;;1023281;28;100769;-79
2021/09/13 12:53:21;;;;;;;12.55;8.60;;;;;;;;;;1024682;28;99747;-78
2021/09/13 12:54:04;;;;;;;15.68;10.10;;;;;;;;;;1024958;28;100459;-80
2021/09/13 12:54:36;;;;;;;14.50;10.70;;;;;;;;;;1025417;28;99925;-80
2021/09/13 12:55:18;;;;;;;13.05;9.00;;;;;;;;;;1024027;28;100337;-81
2021/09/13 12:55:49;;;;;;;13.48;9.00;;;;;;;;;;1025916;28;99980;-81
2021/09/13 12:56:20;;;;;;;15.70;10.48;;;;;;;;;;1027784;28;100086;-79
2021/09/13 12:56:52;;;;;;;14.30;9.82;;;;;;;;;;1028100;28;100011;-79
2021/09/13 12:57:35;;;;;;;15.25;9.98;;;;;;;;;;1027467;28;100241;-80
2021/09/13 12:58:25;;;;;;;13.93;9.02;;;;;;;;;;1026186;28;100044;-79
2021/09/13 12:59:17;;;;;;;12.52;9.27;;;;;;;;;;1022860;28;101945;-80
2021/09/13 13:00:06;;;;;;;12.45;9.35;;;;;;;;;;1023581;28;99282;-80
2021/09/13 13:00:37;;;;;;;12.18;8.98;;;;;;;;;;1018408;28;101844;-78
2021/09/13 13:01:34;;;;;;;13.27;9.18;;;;;;;;;;1019663;28;99944;-78
2021/09/13 13:02:15;;;;;;;13.85;9.73;;;;;;;;;;1022588;28;100337;-78
2021/09/13 13:03:09;;;;;;;14.43;9.40;;;;;;;;;;1026858;28;99823;-77
2021/09/13 13:03:57;;;;;;;14.60;9.93;;;;;;;;;;1026556;28;100211;-77
2021/09/13 13:04:39;;;;;;;16.02;8.93;;;;;;;;;;1028531;28;100106;-77
2021/09/13 13:05:34;;;;;;;13.10;8.77;;;;;;;;;;1022276;28;101789;-76
2021/09/13 13:06:14;;;;;;;15.30;8.85;;;;;;;;;;1019282;28;99806;-79
2021/09/13 13:06:49;;;;;;;14.77;8.35;;;;;;;;;;1016090;28;100838;-78
2021/09/13 13:07:22;;;;;;;13.77;9.07;;;;;;;;;;1017263;28;100074;-76
2021/09/13 13:07:52;;;;;;;13.15;8.95;;;;;;;;;;1015479;28;101749;-78
2021/09/13 13:08:26;;;;;;;13.95;9.15;;;;;;;;;;1017527;28;99884;-77
2021/09/13 13:08:57;;;;;;;14.75;8.23;;;;;;;;;;1020277;28;101438;-77
2021/09/13 13:09:34;;;;;;;12.75;8.63;;;;;;;;;;1020656;28;99748;-78
2021/09/13 13:10:06;;;;;;;13.23;8.80;;;;;;;;;;1017979;28;101789;-77
2021/09/13 13:10:36;;;;;;;13.13;8.45;;;;;;;;;;1017764;28;100092;-76
2021/09/13 13:11:07;;;;;;;13.93;8.45;;;;;;;;;;1019621;28;100118;-79
2021/09/13 13:11:42;;;;;;;13.77;9.38;;;;;;;;;;1016936;28;99788;-76
2021/09/13 13:12:12;;;;;;;16.42;9.30;;;;;;;;;;1016482;28;100450;-79
2021/09/13 13:12:43;;;;;;;14.00;9.10;;;;;;;;;;1020770;28;99952;-79
2021/09/13 13:13:14;;;;;;;14.48;9.15;;;;;;;;;;1020307;28;101374;-76
2021/09/13 13:13:45;;;;;;;11.23;8.70;;;;;;;;;;1024620;28;100015;-76
2021/09/13 13:14:16;;;;;;;12.98;8.82;;;;;;;;;;1023491;28;101614;-79
2021/09/13 13:14:47;;;;;;;12.98;9.23;;;;;;;;;;1025073;28;99922;-78
2021/09/13 13:15:18;;;;;;;13.20;9.10;;;;;;;;;;1023226;28;100139;-78
2021/09/13 13:15:50;;;;;;;15.15;9.10;;;;;;;;;;1021416;28;100000;-77
2021/09/13 13:16:37;;;;;;;15.18;10.38;;;;;;;;;;1019873;28;100237;-78
2021/09/13 13:17:08;;;;;;;11.35;8.48;;;;;;;;;;1020945;28;99937;-78
2021/09/13 13:17:38;;;;;;;13.80;8.80;;;;;;;;;;1023098;28;101404;-78
2021/09/13 13:18:21;;;;;;;11.60;8.65;;;;;;;;;;1024461;28;99961;-80
2021/09/13 13:18:52;;;;;;;11.88;8.07;;;;;;;;;;1023140;28;103522;-78
2021/09/13 13:19:23;;;;;;;12.30;8.05;;;;;;;;;;1024449;28;100013;-88
2021/09/13 13:19:53;;;;;;;14.27;8.93;;;;;;;;;;1023433;28;100519;-75
2021/09/13 13:20:27;;;;;;;12.95;8.85;;;;;;;;;;1024939;28;99683;-78
2021/09/13 13:20:58;;;;;;;13.00;8.45;;;;;;;;;;1023730;28;100313;-79
2021/09/13 13:21:29;;;;;;;13.02;8.30;;;;;;;;;;1023987;28;100038;-81
2021/09/13 13:21:59;;;;;;;14.80;8.00;;;;;;;;;;1019631;28;100334;-77
2021/09/13 13:22:30;;;;;;;9.95;7.50;;;;;;;;;;1020861;28;100036;-76
2021/09/13 13:23:03;;;;;;;13.50;8.23;;;;;;;;;;1015462;28;102224;-79
2021/09/13 13:23:34;;;;;;;11.95;8.45;;;;;;;;;;1020131;28;99826;-72
2021/09/13 13:24:06;;;;;;;11.25;8.23;;;;;;;;;;1019411;28;100171;-76
2021/09/13 13:24:37;;;;;;;11.77;8.05;;;;;;;;;;1016855;28;99955;-74
2021/09/13 13:25:08;;;;;;;15.80;8.27;;;;;;;;;;1018948;28;101497;-69
2021/09/13 13:25:44;;;;;;;14.02;8.82;;;;;;;;;;1020230;28;100315;-70
2021/09/13 13:26:15;;;;;;;15.35;8.55;;;;;;;;;;1020099;28;100883;-73
2021/09/13 13:26:48;;;;;;;12.88;8.48;;;;;;;;;;1024702;28;99977;-76
2021/09/13 13:27:18;;;;;;;13.30;8.90;;;;;;;;;;1023444;28;101529;-76
2021/09/13 13:27:50;;;;;;;14.50;8.75;;;;;;;;;;1024372;28;99994;-77
2021/09/13 13:28:22;;;;;;;17.05;8.95;;;;;;;;;;1019288;28;101787;-75
2021/09/13 13:28:53;;;;;;;15.02;8.98;;;;;;;;;;1020354;28;100098;-74
2021/09/13 13:29:25;;;;;;;15.20;9.50;;;;;;;;;;1020251;28;100136;-77
2021/09/13 13:29:56;;;;;;;13.98;9.23;;;;;;;;;;1024511;28;99940;-77
2021/09/13 13:30:28;;;;;;;16.50;9.15;;;;;;;;;;1023611;28;100642;-79
2021/09/13 13:31:04;;;;;;;15.00;8.88;;;;;;;;;;1024749;28;100061;-79
2021/09/13 13:31:39;;;;;;;15.52;9.20;;;;;;;;;;1021811;28;100465;-80
2021/09/13 13:32:10;;;;;;;11.45;8.65;;;;;;;;;;1020656;28;99658;-78
2021/09/13 13:32:44;;;;;;;14.77;9.35;;;;;;;;;;1019152;28;101413;-81
2021/09/13 13:33:15;;;;;;;12.13;8.52;;;;;;;;;;1020936;28;100051;-75
2021/09/13 13:33:46;;;;;;;16.42;8.75;;;;;;;;;;1019638;28;101403;-75
2021/09/13 13:34:17;;;;;;;14.88;9.52;;;;;;;;;;1024481;28;99939;-80
2021/09/13 13:34:49;;;;;;;14.10;9.00;;;;;;;;;;1023194;28;101698;-82
2021/09/13 13:35:20;;;;;;;12.35;8.63;;;;;;;;;;1023961;28;100102;-79
2021/09/13 13:35:50;;;;;;;14.70;8.73;;;;;;;;;;1023271;28;101757;-80
2021/09/13 13:36:22;;;;;;;14.50;8.30;;;;;;;;;;1020450;28;99601;-74
2021/09/13 13:36:53;;;;;;;15.13;8.80;;;;;;;;;;1019529;28;100274;-80
2021/09/13 13:37:27;;;;;;;13.30;8.63;;;;;;;;;;1020669;28;99847;-75
2021/09/13 13:37:58;;;;;;;14.25;7.90;;;;;;;;;;1016009;28;101481;-81
2021/09/13 13:38:29;;;;;;;12.00;8.27;;;;;;;;;;1020526;28;100027;-81
2021/09/13 13:39:00;;;;;;;11.13;7.45;;;;;;;;;;1019786;28;100152;-78
2021/09/13 13:39:31;;;;;;;11.82;8.00;;;;;;;;;;1021055;28;100122;-76
2021/09/13 13:40:03;;;;;;;15.77;8.70;;;;;;;;;;1020635;28;100431;-75
2021/09/13 13:40:35;;;;;;;12.02;7.70;;;;;;;;;;1024870;28;99971;-81
2021/09/13 13:41:06;;;;;;;11.77;7.22;;;;;;;;;;1022816;28;101872;-78
2021/09/13 13:41:39;;;;;;;11.57;7.10;;;;;;;;;;1024294;28;99649;-81
2021/09/13 13:42:10;;;;;;;11.00;7.15;;;;;;;;;;1021005;28;101630;-85
2021/09/13 13:42:40;;;;;;;13.50;7.13;;;;;;;;;;1019998;28;101919;-74
2021/09/13 13:43:11;;;;;;;11.10;6.75;;;;;;;;;;1014993;28;102033;-72
2021/09/13 13:43:42;;;;;;;12.77;7.18;;;;;;;;;;1016398;28;99905;-74
2021/09/13 13:44:13;;;;;;;10.15;6.18;;;;;;;;;;1015581;28;100804;-71
2021/09/13 13:44:45;;;;;;;10.02;6.88;;;;;;;;;;1020669;28;100135;-74
2021/09/13 13:45:15;;;;;;;11.27;6.50;;;;;;;;;;1023174;28;101960;-75
2021/09/13 13:45:47;;;;;;;9.45;6.25;;;;;;;;;;1020536;28;99809;-75
2021/09/13 13:46:17;;;;;;;11.40;6.65;;;;;;;;;;1019269;28;101833;-74
2021/09/13 13:46:48;;;;;;;9.95;6.22;;;;;;;;;;1020735;28;100139;-74
2021/09/13 13:47:19;;;;;;;11.25;6.65;;;;;;;;;;1019698;28;101462;-77
2021/09/13 13:47:52;;;;;;;10.68;6.63;;;;;;;;;;1024750;28;99737;-72
2021/09/13 13:48:23;;;;;;;8.90;6.75;;;;;;;;;;1023403;28;101396;-72
2021/09/13 13:48:55;;;;;;;11.70;6.93;;;;;;;;;;1024706;28;99866;-69
2021/09/13 13:49:26;;;;;;;8.13;6.50;;;;;;;;;;1023194;28;100184;-74
2021/09/13 13:49:57;;;;;;;9.50;6.22;;;;;;;;;;1020593;28;99794;-74
2021/09/13 13:50:30;;;;;;;10.77;6.25;;;;;;;;;;1019904;28;100516;-78
2021/09/13 13:51:02;;;;;;;9.43;5.95;;;;;;;;;;1021205;28;99913;-68
2021/09/13 13:51:33;;;;;;;10.32;6.43;;;;;;;;;;1020030;28;100552;-69
2021/09/13 13:52:04;;;;;;;8.20;6.00;;;;;;;;;;1024591;28;100116;-76
2021/09/13 13:52:35;;;;;;;9.90;6.38;;;;;;;;;;1023508;28;101667;-72
2021/09/13 13:53:07;;;;;;;9.18;6.43;;;;;;;;;;1020395;28;99822;-71
2021/09/13 13:53:38;;;;;;;11.27;7.28;;;;;;;;;;1019743;28;100407;-76
2021/09/13 13:54:09;;;;;;;10.18;6.25;;;;;;;;;;1020911;28;100009;-68
2021/09/13 13:54:40;;;;;;;10.88;7.07;;;;;;;;;;1019797;28;100205;-70
2021/09/13 13:55:11;;;;;;;10.82;7.07;;;;;;;;;;1016842;28;99846;-68
2021/09/13 13:55:42;;;;;;;11.68;7.43;;;;;;;;;;1019295;28;101407;-76
2021/09/13 13:56:13;;;;;;;8.40;6.82;;;;;;;;;;1020492;28;100082;-79
2021/09/13 13:56:44;;;;;;;8.73;6.85;;;;;;;;;;1015431;28;102108;-74
2021/09/13 13:57:18;;;;;;;10.32;6.97;;;;;;;;;;1020574;28;100123;-71
2021/09/13 13:57:49;;;;;;;12.13;7.28;;;;;;;;;;1019495;28;100302;-78
2021/09/13 13:58:20;;;;;;;13.38;7.53;;;;;;;;;;1020631;28;100060;-82
2021/09/13 13:58:51;;;;;;;12.40;7.55;;;;;;;;;;1019684;28;101368;-80
2021/09/13 13:59:21;;;;;;;12.70;7.20;;;;;;;;;;1020685;28;99965;-76
2021/09/13 13:59:52;;;;;;;12.32;7.90;;;;;;;;;;1019747;28;101537;-78
2021/09/13 14:00:23;;;;;;;10.02;7.53;;;;;;;;;;1024744;28;99933;-80
2021/09/13 14:00:56;;;;;;;11.23;7.03;;;;;;;;;;1019253;28;101737;-79
2021/09/13 14:01:30;;;;;;;10.25;7.38;;;;;;;;;;1020415;28;99753;-79
2021/09/13 14:02:01;;;;;;;11.57;6.93;;;;;;;;;;1019158;28;101953;-78
2021/09/13 14:02:32;;;;;;;11.48;7.00;;;;;;;;;;1021233;28;100136;-79
2021/09/13 14:03:03;;;;;;;10.35;6.85;;;;;;;;;;1023635;28;100149;-78
2021/09/13 14:03:34;;;;;;;12.00;7.50;;;;;;;;;;1024525;28;99770;-76
2021/09/13 14:04:05;;;;;;;12.18;6.70;;;;;;;;;;1019587;28;101447;-83
2021/09/13 14:04:36;;;;;;;12.82;7.07;;;;;;;;;;1021238;28;99773;-76
2021/09/13 14:05:07;;;;;;;12.90;7.38;;;;;;;;;;1023358;28;101565;-85
2021/09/13 14:05:39;;;;;;;13.30;7.18;;;;;;;;;;1025320;28;100128;-78
2021/09/13 14:06:10;;;;;;;10.60;7.57;;;;;;;;;;1023732;28;101227;-77
2021/09/13 14:06:40;;;;;;;12.15;7.60;;;;;;;;;;1021684;28;99933;-73
2021/09/13 14:07:12;;;;;;;11.95;6.90;;;;;;;;;;1018849;28;101455;-78
2021/09/13 14:07:45;;;;;;;14.77;7.50;;;;;;;;;;1021084;28;99607;-76
2021/09/13 14:08:16;;;;;;;11.45;7.22;;;;;;;;;;1019880;28;100176;-79
2021/09/13 14:08:47;;;;;;;12.23;7.28;;;;;;;;;;1024597;28;99821;-79
2021/09/13 14:09:18;;;;;;;9.95;7.28;;;;;;;;;;1024074;28;101507;-79
2021/09/13 14:09:49;;;;;;;10.10;7.32;;;;;;;;;;1024925;28;100107;-76
2021/09/13 14:10:44;;;;;;;9.75;7.30;;;;;;;;;;1025153;28;101329;-78
2021/09/13 14:11:15;;;;;;;11.38;6.90;;;;;;;;;;1022687;28;99922;-66
2021/09/13 14:11:47;;;;;;;12.95;7.32;;;;;;;;;;1023587;28;100286;-64
2021/09/13 14:12:18;;;;;;;11.02;7.57;;;;;;;;;;1024879;28;100028;-66
2021/09/13 14:12:49;;;;;;;12.00;7.50;;;;;;;;;;1024016;28;100223;-68
2021/09/13 14:13:20;;;;;;;10.02;7.30;;;;;;;;;;1028981;28;99988;-67
2021/09/13 14:13:51;;;;;;;11.18;7.00;;;;;;;;;;1027367;28;101434;-66
2021/09/13 14:14:25;;;;;;;11.13;7.25;;;;;;;;;;1024908;28;99888;-68
2021/09/13 14:14:56;;;;;;;13.15;7.35;;;;;;;;;;1023445;28;100211;-74
2021/09/13 14:15:27;;;;;;;11.95;7.38;;;;;;;;;;1024934;28;99794;-68
2021/09/13 14:15:58;;;;;;;12.52;6.93;;;;;;;;;;1024436;28;100829;-69
2021/09/13 14:16:29;;;;;;;9.50;7.00;;;;;;;;;;1024525;28;99974;-68
2021/09/13 14:17:00;;;;;;;13.05;7.65;;;;;;;;;;1023429;28;101506;-71
2021/09/13 14:17:33;;;;;;;10.80;6.60;;;;;;;;;;1024948;28;99879;-67
2021/09/13 14:18:04;;;;;;;10.10;6.95;;;;;;;;;;1023877;28;100342;-67
2021/09/13 14:18:35;;;;;;;9.13;6.82;;;;;;;;;;1028184;28;99819;-68
2021/09/13 14:19:06;;;;;;;12.80;7.40;;;;;;;;;;1026848;28;100314;-69
2021/09/13 14:19:37;;;;;;;9.32;6.82;;;;;;;;;;1025043;28;99652;-69
2021/09/13 14:20:08;;;;;;;11.45;6.75;;;;;;;;;;1023826;28;100199;-74
2021/09/13 14:20:41;;;;;;;9.98;6.75;;;;;;;;;;1025313;28;100258;-70
2021/09/13 14:21:13;;;;;;;11.52;7.32;;;;;;;;;;1023878;28;100223;-78
2021/09/13 14:21:44;;;;;;;11.55;7.30;;;;;;;;;;1024972;28;99804;-69
2021/09/13 14:22:15;;;;;;;11.93;7.13;;;;;;;;;;1023977;28;100857;-67
2021/09/13 14:22:46;;;;;;;11.32;6.97;;;;;;;;;;1028568;28;99840;-69
2021/09/13 14:23:16;;;;;;;11.57;6.88;;;;;;;;;;1027753;28;100146;-67
2021/09/13 14:23:49;;;;;;;11.35;6.85;;;;;;;;;;1028953;28;100030;-74
2021/09/13 14:24:20;;;;;;;8.38;6.30;;;;;;;;;;1027329;28;100244;-67
2021/09/13 14:24:51;;;;;;;10.07;7.50;;;;;;;;;;1024960;28;99875;-70
2021/09/13 14:25:22;;;;;;;11.80;7.45;;;;;;;;;;1023665;28;100162;-69
2021/09/13 14:25:53;;;;;;;10.43;6.70;;;;;;;;;;1024776;28;100137;-72
2021/09/13 14:26:23;;;;;;;12.48;6.47;;;;;;;;;;1019750;28;100294;-70
2021/09/13 14:26:55;;;;;;;11.15;7.13;;;;;;;;;;1020460;28;100562;-68
2021/09/13 14:27:26;;;;;;;8.55;6.30;;;;;;;;;;1019737;28;100107;-68
2021/09/13 14:27:57;;;;;;;10.35;6.28;;;;;;;;;;1023375;28;101347;-68
2021/09/13 14:28:28;;;;;;;10.27;6.00;;;;;;;;;;1023202;28;101390;-67
2021/09/13 14:28:59;;;;;;;9.25;6.25;;;;;;;;;;1024790;28;99850;-68
2021/09/13 14:29:30;;;;;;;9.50;6.63;;;;;;;;;;1019302;28;101706;-66
2021/09/13 14:30:00;;;;;;;9.23;7.10;;;;;;;;;;1020857;28;99980;-69
2021/09/13 14:30:31;;;;;;;14.30;6.90;;;;;;;;;;1019364;28;100196;-70
2021/09/13 14:31:02;;;;;;;9.80;6.30;;;;;;;;;;1021260;28;99964;-69
2021/09/13 14:31:35;;;;;;;12.77;7.15;;;;;;;;;;1019345;28;100457;-69
2021/09/13 14:32:06;;;;;;;10.88;6.53;;;;;;;;;;1020546;28;100107;-67
2021/09/13 14:32:37;;;;;;;12.85;7.03;;;;;;;;;;1019629;28;100155;-67
2021/09/13 14:33:07;;;;;;;10.45;7.25;;;;;;;;;;1021204;28;100068;-66
2021/09/13 14:33:40;;;;;;;11.48;6.30;;;;;;;;;;1019491;28;101438;-67
2021/09/13 14:34:11;;;;;;;10.75;6.18;;;;;;;;;;1020653;28;100087;-68
2021/09/13 14:34:42;;;;;;;9.00;6.40;;;;;;;;;;1019021;28;101662;-68
2021/09/13 14:35:12;;;;;;;9.43;6.70;;;;;;;;;;1020829;28;100283;-67
2021/09/13 14:35:43;;;;;;;11.00;6.22;;;;;;;;;;1019960;28;100128;-66
2021/09/13 14:36:14;;;;;;;12.38;7.50;;;;;;;;;;1021002;28;100072;-65
2021/09/13 14:36:45;;;;;;;12.35;7.10;;;;;;;;;;1019281;28;101505;-65
2021/09/13 14:37:16;;;;;;;9.73;7.03;;;;;;;;;;1020749;28;99841;-66
2021/09/13 14:37:47;;;;;;;12.70;7.20;;;;;;;;;;1019394;28;100205;-66
2021/09/13 14:38:18;;;;;;;9.35;6.60;;;;;;;;;;1024359;28;99811;-65
2021/09/13 14:38:49;;;;;;;10.52;6.97;;;;;;;;;;1023382;28;100150;-66
2021/09/13 14:39:19;;;;;;;12.13;6.88;;;;;;;;;;1024925;28;100101;-65
2021/09/13 14:39:51;;;;;;;11.50;7.20;;;;;;;;;;1022911;28;101441;-66
2021/09/13 14:40:21;;;;;;;12.98;6.38;;;;;;;;;;1020871;28;99908;-66
2021/09/13 14:40:52;;;;;;;9.23;6.90;;;;;;;;;;1019984;28;100330;-66
2021/09/13 14:41:23;;;;;;;12.40;7.28;;;;;;;;;;1021092;28;99917;-65
2021/09/13 14:41:54;;;;;;;10.43;7.15;;;;;;;;;;1019804;28;100177;-70
2021/09/13 14:42:25;;;;;;;10.45;6.85;;;;;;;;;;1021092;28;99743;-66
2021/09/13 14:42:56;;;;;;;9.82;7.35;;;;;;;;;;1019244;28;101509;-66
2021/09/13 14:43:27;;;;;;;10.75;7.63;;;;;;;;;;1020673;28;99795;-67
2021/09/13 14:43:57;;;;;;;10.90;6.60;;;;;;;;;;1019387;28;100541;-68
2021/09/13 14:44:28;;;;;;;13.02;6.75;;;;;;;;;;1020808;28;99952;-67
2021/09/13 14:44:59;;;;;;;9.52;6.72;;;;;;;;;;1019614;28;101525;-67
2021/09/13 14:45:33;;;;;;;10.45;7.07;;;;;;;;;;1020975;28;99904;-66
2021/09/13 14:46:04;;;;;;;9.32;7.00;;;;;;;;;;1019719;28;100163;-66
2021/09/13 14:46:35;;;;;;;11.55;7.60;;;;;;;;;;1025015;28;99765;-65
2021/09/13 14:47:07;;;;;;;12.63;7.13;;;;;;;;;;1023862;28;100215;-66
2021/09/13 14:47:38;;;;;;;11.75;6.80;;;;;;;;;;1020709;28;100151;-67
2021/09/13 14:48:09;;;;;;;14.00;7.43;;;;;;;;;;1019118;28;101291;-67
2021/09/13 14:48:40;;;;;;;10.77;7.10;;;;;;;;;;1020728;28;99862;-67
2021/09/13 14:49:11;;;;;;;11.80;7.25;;;;;;;;;;1019453;28;100214;-66
2021/09/13 14:49:42;;;;;;;13.70;7.70;;;;;;;;;;1021045;28;99925;-67
2021/09/13 14:50:13;;;;;;;13.25;7.68;;;;;;;;;;1019752;28;100246;-70
2021/09/13 14:50:44;;;;;;;13.38;6.97;;;;;;;;;;1021231;28;99706;-66
2021/09/13 14:51:15;;;;;;;9.98;6.90;;;;;;;;;;1023268;28;101597;-66
2021/09/13 14:51:46;;;;;;;8.43;6.75;;;;;;;;;;1024422;28;99788;-65
2021/09/13 14:52:21;;;;;;;10.40;7.47;;;;;;;;;;1023130;28;100449;-66
2021/09/13 14:52:53;;;;;;;10.27;6.85;;;;;;;;;;1023864;28;99896;-67
2021/09/13 14:53:24;;;;;;;13.48;7.07;;;;;;;;;;1019678;28;100434;-66
2021/09/13 14:53:56;;;;;;;9.15;6.60;;;;;;;;;;1023941;28;99823;-67
2021/09/13 14:54:26;;;;;;;12.82;6.38;;;;;;;;;;1023366;28;100182;-65
2021/09/13 14:54:57;;;;;;;11.70;6.95;;;;;;;;;;1024826;28;99981;-66
2021/09/13 14:55:28;;;;;;;12.75;7.25;;;;;;;;;;1023208;28;100253;-66
2021/09/13 14:55:59;;;;;;;8.93;6.43;;;;;;;;;;1024069;28;100039;-67
2021/09/13 14:56:31;;;;;;;9.30;6.95;;;;;;;;;;1023257;28;100201;-66
2021/09/13 14:57:02;;;;;;;10.52;7.63;;;;;;;;;;1020583;28;99823;-66
2021/09/13 14:57:33;;;;;;;10.43;7.15;;;;;;;;;;1023306;28;100181;-68
2021/09/13 14:58:04;;;;;;;11.55;7.25;;;;;;;;;;1024465;28;99741;-66
2021/09/13 14:58:35;;;;;;;10.38;7.03;;;;;;;;;;1023122;28;101280;-66
2021/09/13 14:59:06;;;;;;;12.15;7.30;;;;;;;;;;1028136;28;100016;-67
2021/09/13 14:59:36;;;;;;;9.38;6.90;;;;;;;;;;1027171;28;100209;-67
2021/09/13 15:00:08;;;;;;;10.60;6.90;;;;;;;;;;1028388;28;100185;-67
2021/09/13 15:00:39;;;;;;;11.20;6.47;;;;;;;;;;1018931;28;103564;-66
2021/09/13 15:01:10;;;;;;;10.82;6.45;;;;;;;;;;1020553;28;100095;-67
2021/09/13 15:01:40;;;;;;;10.68;6.38;;;;;;;;;;1019080;28;100714;-66
2021/09/13 15:02:11;;;;;;;9.27;6.00;;;;;;;;;;1020797;28;100144;-71
2021/09/13 15:02:42;;;;;;;12.32;6.95;;;;;;;;;;1021050;28;100278;-65
2021/09/13 15:03:14;;;;;;;12.52;6.15;;;;;;;;;;1024661;28;99802;-66
2021/09/13 15:03:45;;;;;;;13.45;6.57;;;;;;;;;;1023578;28;100721;-66
2021/09/13 15:04:16;;;;;;;12.68;6.22;;;;;;;;;;1024676;28;99911;-66
2021/09/13 15:04:47;;;;;;;9.93;6.47;;;;;;;;;;1022582;28;101319;-67
2021/09/13 15:05:18;;;;;;;10.52;6.72;;;;;;;;;;1024631;28;100134;-66
2021/09/13 15:05:49;;;;;;;9.38;6.75;;;;;;;;;;1023366;28;100169;-66
2021/09/13 15:06:20;;;;;;;14.13;7.05;;;;;;;;;;1024238;28;99937;-66
2021/09/13 15:06:51;;;;;;;10.23;6.25;;;;;;;;;;1023439;28;100325;-66
2021/09/13 15:07:22;;;;;;;9.98;6.50;;;;;;;;;;1024782;28;99982;-67
2021/09/13 15:07:53;;;;;;;12.15;6.70;;;;;;;;;;1023445;28;100188;-68
2021/09/13 15:08:24;;;;;;;11.55;6.15;;;;;;;;;;1024718;28;99872;-68
2021/09/13 15:08:54;;;;;;;10.48;6.25;;;;;;;;;;1018331;28;101593;-66
2021/09/13 15:09:25;;;;;;;8.07;5.90;;;;;;;;;;1020155;28;100708;-64
2021/09/13 15:09:56;;;;;;;10.10;6.68;;;;;;;;;;1018980;28;100131;-66
2021/09/13 15:10:27;;;;;;;11.93;6.13;;;;;;;;;;1020375;28;100048;-66
2021/09/13 15:10:58;;;;;;;11.73;6.35;;;;;;;;;;1026855;28;102973;-66
2021/09/13 15:11:28;;;;;;;9.93;6.22;;;;;;;;;;1024110;28;100085;-64
2021/09/13 15:12:00;;;;;;;10.45;5.93;;;;;;;;;;1023083;28;100741;-69
2021/09/13 15:12:33;;;;;;;10.60;6.53;;;;;;;;;;1024415;28;99927;-66
2021/09/13 15:13:04;;;;;;;10.50;6.22;;;;;;;;;;1022904;28;100701;-67